Time;durP1;ratioP1;P1;durP2;ratioP2;P2;SDS_P1;SDS_P2;PMS_P1;PMS_P2;Temp;Humidity;BMP_temperature;BMP_pressure;BME280_temperature;BME280_humidity;BME280_pressure;Samples;Min_cycle;Max_cycle;Signal;HPM_P1;HPM_P2
2022/03/23 00:01:06;;;;;;;45.42;20.15;;;9.30;81.20;;;;;;4993484;28;20117;-84
2022/03/23 00:03:33;;;;;;;42.67;20.08;;;9.40;81.20;;;;;;4983371;28;20065;-85
2022/03/23 00:05:59;;;;;;;50.15;21.58;;;9.40;81.20;;;;;;4990837;28;20495;-85
2022/03/23 00:08:25;;;;;;;44.35;21.50;;;9.40;81.20;;;;;;4989095;28;20030;-85
2022/03/23 00:10:50;;;;;;;42.80;22.05;;;9.40;81.20;;;;;;4989989;28;20071;-85
2022/03/23 00:13:16;;;;;;;35.97;19.77;;;9.40;81.20;;;;;;4994418;28;20044;-85
2022/03/23 00:15:41;;;;;;;42.63;20.15;;;9.40;81.20;;;;;;4987046;28;20030;-86
2022/03/23 00:18:07;;;;;;;41.67;20.98;;;9.30;81.30;;;;;;4982982;28;20114;-86
2022/03/23 00:20:33;;;;;;;41.80;22.27;;;9.30;81.40;;;;;;4991556;28;20042;-86
2022/03/23 00:22:59;;;;;;;45.60;21.25;;;9.20;81.50;;;;;;4989244;28;20018;-86
2022/03/23 00:25:24;;;;;;;39.10;20.83;;;9.20;81.70;;;;;;4991857;28;20034;-86
2022/03/23 00:27:50;;;;;;;43.75;22.20;;;9.20;81.80;;;;;;4984231;28;20030;-86
2022/03/23 00:30:17;;;;;;;43.22;21.27;;;9.10;82.00;;;;;;4990698;28;20494;-86
2022/03/23 00:32:43;;;;;;;40.58;21.40;;;9.10;82.10;;;;;;5008864;28;20037;-85
2022/03/23 00:35:08;;;;;;;44.83;21.27;;;9.10;82.30;;;;;;4995933;28;20046;-85
2022/03/23 00:37:34;;;;;;;41.40;21.70;;;9.10;82.40;;;;;;4980483;28;20133;-85
2022/03/23 00:39:59;;;;;;;39.30;21.40;;;9.00;82.30;;;;;;4990581;28;20026;-86
2022/03/23 00:42:25;;;;;;;40.45;21.38;;;9.10;82.50;;;;;;4994153;28;20073;-86
2022/03/23 00:44:51;;;;;;;40.45;21.33;;;9.00;82.40;;;;;;4993101;28;20312;-85
2022/03/23 00:47:17;;;;;;;43.15;20.20;;;9.00;82.60;;;;;;4989121;28;20026;-86
2022/03/23 00:49:43;;;;;;;43.17;21.05;;;9.00;82.80;;;;;;4993496;28;20837;-85
2022/03/23 00:52:10;;;;;;;40.72;20.35;;;8.90;82.90;;;;;;4993435;28;20030;-85
2022/03/23 00:54:37;;;;;;;38.47;21.00;;;8.90;83.20;;;;;;4990674;28;20376;-86
2022/03/23 00:57:06;;;;;;;45.80;20.83;;;8.90;83.30;;;;;;4993960;28;20034;-86
2022/03/23 00:59:32;;;;;;;42.50;21.17;;;8.80;83.50;;;;;;4977190;28;20027;-85
2022/03/23 01:01:58;;;;;;;38.58;21.63;;;8.80;83.50;;;;;;4993446;28;20069;-85
2022/03/23 01:04:24;;;;;;;43.38;20.95;;;8.80;83.70;;;;;;4993505;28;20018;-85
2022/03/23 01:06:52;;;;;;;45.65;21.92;;;8.70;83.80;;;;;;4992615;28;20030;-85
2022/03/23 01:09:22;;;;;;;43.35;20.95;;;8.70;84.00;;;;;;4993242;28;20538;-85
2022/03/23 01:11:51;;;;;;;45.28;20.80;;;8.70;84.00;;;;;;4992832;28;20061;-85
2022/03/23 01:14:18;;;;;;;39.10;18.85;;;8.60;84.20;;;;;;4979151;28;20500;-85
2022/03/23 01:16:44;;;;;;;44.63;20.63;;;8.60;84.30;;;;;;4999533;28;20089;-85
2022/03/23 01:19:10;;;;;;;39.40;20.98;;;8.50;84.50;;;;;;4991689;28;20042;-85
2022/03/23 01:21:36;;;;;;;42.33;19.50;;;8.50;84.60;;;;;;4992360;28;20134;-86
2022/03/23 01:24:02;;;;;;;42.90;21.65;;;8.50;84.70;;;;;;4991907;28;20026;-85
2022/03/23 01:26:28;;;;;;;38.17;19.55;;;8.50;84.90;;;;;;4992831;28;20085;-85
2022/03/23 01:28:53;;;;;;;42.80;21.13;;;8.50;84.90;;;;;;4982110;28;20019;-85
2022/03/23 01:31:19;;;;;;;45.38;20.40;;;8.50;85.10;;;;;;4976100;28;20117;-85
2022/03/23 01:33:44;;;;;;;44.03;20.42;;;8.40;85.10;;;;;;5001799;28;20026;-85
2022/03/23 01:36:10;;;;;;;41.42;20.15;;;8.40;85.30;;;;;;4992683;28;20054;-85
2022/03/23 01:38:36;;;;;;;36.58;19.58;;;8.40;85.50;;;;;;4992481;28;20026;-85
2022/03/23 01:41:03;;;;;;;41.80;20.80;;;8.40;85.50;;;;;;4987263;28;20129;-84
2022/03/23 01:43:29;;;;;;;40.45;19.20;;;8.40;85.60;;;;;;4992638;28;20029;-85
2022/03/23 01:45:55;;;;;;;41.95;20.40;;;8.30;85.80;;;;;;4992064;28;20026;-85
2022/03/23 01:48:21;;;;;;;41.38;20.38;;;8.30;85.90;;;;;;4992855;28;20029;-85
2022/03/23 01:50:46;;;;;;;39.58;20.45;;;8.20;86.00;;;;;;4992248;28;20113;-85
2022/03/23 01:53:12;;;;;;;41.47;21.42;;;8.10;86.20;;;;;;4992485;28;20027;-85
2022/03/23 01:55:38;;;;;;;41.03;21.67;;;7.90;86.80;;;;;;4990705;28;20034;-85
2022/03/23 01:58:04;;;;;;;37.60;20.35;;;7.70;87.20;;;;;;4983797;28;20027;-85
2022/03/23 02:00:29;;;;;;;43.05;20.83;;;7.50;87.70;;;;;;4992044;28;20407;-85
2022/03/23 02:02:55;;;;;;;44.65;22.17;;;7.30;88.60;;;;;;4983317;28;20081;-85
2022/03/23 02:05:21;;;;;;;43.20;21.67;;;7.20;89.20;;;;;;4983208;28;20030;-85
2022/03/23 02:07:47;;;;;;;40.40;21.98;;;7.10;89.80;;;;;;4990346;28;20034;-86
2022/03/23 02:10:12;;;;;;;42.20;20.80;;;7.00;90.10;;;;;;4974295;28;20031;-86
2022/03/23 02:12:38;;;;;;;41.33;20.83;;;6.90;90.30;;;;;;4985767;28;20121;-86
2022/03/23 02:15:12;;;;;;;39.13;20.05;;;6.80;90.60;;;;;;4987277;28;20026;-85
2022/03/23 02:17:38;;;;;;;42.53;21.13;;;6.70;91.00;;;;;;4991171;28;20517;-85
2022/03/23 02:20:06;;;;;;;43.38;20.83;;;6.60;91.30;;;;;;4987142;28;20042;-85
2022/03/23 02:22:31;;;;;;;34.95;18.42;;;6.50;91.70;;;;;;4992485;28;20034;-86
2022/03/23 02:24:57;;;;;;;44.38;20.33;;;6.50;91.90;;;;;;4978538;28;20023;-85
2022/03/23 02:27:23;;;;;;;40.58;20.48;;;6.50;92.30;;;;;;4988493;28;20028;-85
2022/03/23 02:29:52;;;;;;;45.17;20.60;;;6.50;92.50;;;;;;4992277;28;20029;-85
2022/03/23 02:32:17;;;;;;;39.80;19.70;;;6.40;92.70;;;;;;4986025;28;20030;-85
2022/03/23 02:34:43;;;;;;;46.67;20.20;;;6.40;92.80;;;;;;4982022;28;20035;-85
2022/03/23 02:37:08;;;;;;;41.60;20.85;;;6.30;93.10;;;;;;4980413;28;20033;-86
2022/03/23 02:39:34;;;;;;;41.40;20.15;;;6.30;93.30;;;;;;4991182;28;20058;-84
2022/03/23 02:42:00;;;;;;;40.75;19.25;;;6.30;93.70;;;;;;4991182;28;20031;-85
2022/03/23 02:44:26;;;;;;;40.28;20.45;;;6.40;94.00;;;;;;4980723;28;20027;-85
2022/03/23 02:46:52;;;;;;;39.53;19.25;;;6.40;94.20;;;;;;4981852;28;20535;-85
2022/03/23 02:49:20;;;;;;;39.33;19.15;;;6.50;94.20;;;;;;4992024;28;20019;-85
2022/03/23 02:51:46;;;;;;;38.75;19.92;;;6.50;94.30;;;;;;4991806;28;20061;-85
2022/03/23 03:02:47;;;;;;;45.28;21.45;;;6.50;94.60;;;;;;4981591;28;20092;-86
2022/03/23 03:05:13;;;;;;;42.13;20.90;;;6.50;94.50;;;;;;4990129;28;20125;-85
2022/03/23 03:10:25;;;;;;;35.22;19.60;;;6.40;94.90;;;;;;4996822;28;20037;-85
2022/03/23 03:12:51;;;;;;;36.53;19.90;;;6.40;95.20;;;;;;4995628;28;20027;-85
2022/03/23 03:15:19;;;;;;;42.00;21.30;;;6.40;95.30;;;;;;4980525;28;20428;-86
2022/03/23 03:17:46;;;;;;;47.70;22.17;;;6.50;95.60;;;;;;4994416;28;20032;-85
2022/03/23 03:20:14;;;;;;;38.13;19.90;;;6.50;95.80;;;;;;4995627;28;20054;-85
2022/03/23 03:22:40;;;;;;;44.40;20.10;;;6.60;95.80;;;;;;4996138;28;20060;-85
2022/03/23 03:25:08;;;;;;;45.70;21.10;;;6.60;95.80;;;;;;4989880;28;20142;-85
2022/03/23 03:27:37;;;;;;;36.85;20.88;;;6.60;95.80;;;;;;4977139;28;20037;-85
2022/03/23 03:30:04;;;;;;;40.97;20.63;;;6.60;95.80;;;;;;4983861;28;20030;-85
2022/03/23 03:32:30;;;;;;;45.95;21.85;;;6.60;95.90;;;;;;4984256;28;20030;-85
2022/03/23 03:34:56;;;;;;;43.40;20.77;;;6.60;96.00;;;;;;4979827;28;20037;-85
2022/03/23 03:37:22;;;;;;;43.80;21.63;;;6.50;96.20;;;;;;4991183;28;20053;-86
2022/03/23 03:39:47;;;;;;;43.05;22.17;;;6.50;96.20;;;;;;4994950;28;20038;-86
2022/03/23 03:42:13;;;;;;;47.30;23.83;;;6.50;96.40;;;;;;4985644;28;20407;-85
2022/03/23 03:44:39;;;;;;;44.40;21.85;;;6.40;96.60;;;;;;4994372;28;20781;-85
2022/03/23 03:47:05;;;;;;;42.58;22.40;;;6.30;96.60;;;;;;4993620;28;20027;-85
2022/03/23 03:49:31;;;;;;;42.70;21.58;;;6.30;96.90;;;;;;4990615;28;20027;-85
2022/03/23 03:51:57;;;;;;;48.20;22.52;;;6.30;97.10;;;;;;4994472;28;20018;-85
2022/03/23 03:54:23;;;;;;;41.83;20.55;;;6.20;97.20;;;;;;4990660;28;20027;-85
2022/03/23 03:56:48;;;;;;;44.47;21.95;;;6.20;97.50;;;;;;4981596;28;20093;-85
2022/03/23 03:59:14;;;;;;;48.83;23.40;;;6.20;97.70;;;;;;4982533;28;20113;-85
2022/03/23 04:01:40;;;;;;;43.75;22.40;;;6.20;97.80;;;;;;4987064;28;20050;-85
2022/03/23 04:04:05;;;;;;;39.70;21.00;;;6.30;97.90;;;;;;4989001;28;20122;-85
2022/03/23 04:06:31;;;;;;;41.15;22.92;;;6.30;97.70;;;;;;4986389;28;20065;-85
2022/03/23 04:08:56;;;;;;;41.85;21.17;;;6.20;97.70;;;;;;4978370;28;20446;-85
2022/03/23 04:11:22;;;;;;;50.70;23.55;;;6.10;97.90;;;;;;4981970;28;20151;-85
2022/03/23 04:13:47;;;;;;;45.97;22.75;;;6.10;98.00;;;;;;4975353;28;20019;-85
2022/03/23 04:16:13;;;;;;;52.60;22.25;;;6.00;98.20;;;;;;4987295;28;20483;-85
2022/03/23 04:18:38;;;;;;;43.38;21.88;;;5.90;98.30;;;;;;4993548;28;20132;-85
2022/03/23 04:21:05;;;;;;;47.95;21.10;;;5.80;98.50;;;;;;4992012;28;20045;-85
2022/03/23 04:23:30;;;;;;;44.17;22.27;;;5.80;98.70;;;;;;4988112;28;20041;-85
2022/03/23 04:25:56;;;;;;;43.80;21.73;;;5.70;98.90;;;;;;4978526;28;20395;-85
2022/03/23 04:28:21;;;;;;;41.67;22.15;;;5.60;99.00;;;;;;4993010;28;20122;-85
2022/03/23 04:30:47;;;;;;;44.50;22.00;;;5.50;99.10;;;;;;4989804;28;20026;-86
2022/03/23 04:33:13;;;;;;;46.20;21.67;;;5.40;99.30;;;;;;4980516;28;20029;-85
2022/03/23 04:35:39;;;;;;;46.92;22.83;;;5.30;99.60;;;;;;4993444;28;20068;-85
2022/03/23 04:38:05;;;;;;;46.30;22.70;;;5.30;99.80;;;;;;4989839;28;20129;-85
2022/03/23 04:40:31;;;;;;;44.25;22.13;;;5.20;99.90;;;;;;4994071;28;20031;-85
2022/03/23 04:42:58;;;;;;;46.97;22.73;;;5.30;99.90;;;;;;4985391;28;20041;-85
2022/03/23 04:45:24;;;;;;;45.97;22.15;;;5.30;99.90;;;;;;4991053;28;20049;-85
2022/03/23 04:47:50;;;;;;;45.38;21.35;;;5.20;99.90;;;;;;4979869;28;20565;-85
2022/03/23 04:50:16;;;;;;;47.13;22.20;;;5.20;99.90;;;;;;4991782;28;20034;-85
2022/03/23 04:52:44;;;;;;;47.00;22.70;;;5.20;99.90;;;;;;4997080;28;20081;-85
2022/03/23 04:55:12;;;;;;;48.58;22.33;;;5.20;99.90;;;;;;4986188;28;20053;-85
2022/03/23 04:57:38;;;;;;;46.53;21.77;;;5.10;99.90;;;;;;4992912;28;20483;-85
2022/03/23 05:00:10;;;;;;;43.45;21.98;;;5.00;99.90;;;;;;4992681;28;20034;-85
2022/03/23 05:02:38;;;;;;;47.03;22.77;;;5.00;99.90;;;;;;4988880;28;20450;-85
2022/03/23 05:05:05;;;;;;;47.10;22.92;;;4.90;99.90;;;;;;4992076;28;20555;-85
2022/03/23 05:07:30;;;;;;;47.63;23.13;;;4.90;99.90;;;;;;4993136;28;20065;-85
2022/03/23 05:09:56;;;;;;;43.90;22.52;;;4.80;99.90;;;;;;4993871;28;20041;-85
2022/03/23 05:12:21;;;;;;;46.88;23.13;;;4.80;99.90;;;;;;4991716;28;20026;-85
2022/03/23 05:14:47;;;;;;;49.85;22.42;;;4.80;99.90;;;;;;4993463;28;20087;-85
2022/03/23 05:17:12;;;;;;;40.33;22.02;;;4.70;99.90;;;;;;4990357;28;20084;-85
2022/03/23 05:19:38;;;;;;;44.42;21.05;;;4.70;99.90;;;;;;4994953;28;20070;-85
2022/03/23 05:22:04;;;;;;;44.80;21.70;;;4.60;99.90;;;;;;4991283;28;20034;-85
2022/03/23 05:24:29;;;;;;;46.80;22.45;;;4.60;99.90;;;;;;4993890;28;20068;-85
2022/03/23 05:26:55;;;;;;;52.00;24.10;;;4.60;99.90;;;;;;4992351;28;20018;-85
2022/03/23 05:29:21;;;;;;;42.90;21.10;;;4.50;99.90;;;;;;4992062;28;20045;-85
2022/03/23 05:31:46;;;;;;;45.65;21.70;;;4.40;99.90;;;;;;4982234;28;20030;-85
2022/03/23 05:34:12;;;;;;;44.13;21.50;;;4.40;99.90;;;;;;4989813;28;20018;-84
2022/03/23 05:36:37;;;;;;;41.90;22.10;;;4.30;99.90;;;;;;4992875;28;20030;-84
2022/03/23 05:39:03;;;;;;;52.63;23.02;;;4.30;99.90;;;;;;4992418;28;20470;-84
2022/03/23 05:41:28;;;;;;;49.90;22.90;;;4.30;99.90;;;;;;4993069;28;20062;-85
2022/03/23 05:43:54;;;;;;;46.10;21.70;;;4.20;99.90;;;;;;4981567;28;20026;-84
2022/03/23 05:46:19;;;;;;;48.78;22.58;;;4.10;99.90;;;;;;4993422;28;20042;-85
2022/03/23 05:48:45;;;;;;;43.83;22.25;;;4.20;99.90;;;;;;4992700;28;20030;-84
2022/03/23 05:51:10;;;;;;;49.20;24.58;;;4.10;99.90;;;;;;4993227;28;20125;-85
2022/03/23 05:53:37;;;;;;;47.47;22.83;;;4.20;99.90;;;;;;4995778;28;20018;-84
2022/03/23 05:56:07;;;;;;;44.17;20.92;;;4.20;99.90;;;;;;4987301;28;20027;-84
2022/03/23 05:58:34;;;;;;;44.83;21.58;;;4.20;99.90;;;;;;4978303;28;20085;-85
2022/03/23 06:01:00;;;;;;;45.88;23.15;;;4.20;99.90;;;;;;4988365;28;20034;-86
2022/03/23 06:03:25;;;;;;;50.30;21.88;;;4.20;99.90;;;;;;4990102;28;20029;-85
2022/03/23 06:05:51;;;;;;;52.33;22.92;;;4.10;99.90;;;;;;4989521;28;20450;-84
2022/03/23 06:08:16;;;;;;;46.20;23.05;;;4.20;99.90;;;;;;4987585;28;20069;-85
2022/03/23 06:10:42;;;;;;;46.00;22.50;;;4.20;99.90;;;;;;4981261;28;20035;-84
2022/03/23 06:13:08;;;;;;;41.88;22.10;;;4.20;99.90;;;;;;4993094;28;20033;-85
2022/03/23 06:15:33;;;;;;;48.58;23.40;;;4.40;99.90;;;;;;4990838;28;20036;-86
2022/03/23 06:17:59;;;;;;;47.42;23.08;;;4.40;99.90;;;;;;4990138;28;20026;-85
2022/03/23 06:20:24;;;;;;;44.15;22.75;;;4.50;99.90;;;;;;4990275;28;20050;-85
2022/03/23 06:22:50;;;;;;;42.30;22.95;;;4.60;99.90;;;;;;4981456;28;20060;-86
2022/03/23 06:25:15;;;;;;;41.83;21.75;;;4.70;99.90;;;;;;4982555;28;20073;-85
2022/03/23 06:27:41;;;;;;;54.25;24.83;;;4.80;99.90;;;;;;4984590;28;20026;-86
2022/03/23 06:30:07;;;;;;;55.50;24.17;;;4.90;99.90;;;;;;4987026;28;20438;-86
2022/03/23 06:32:33;;;;;;;43.30;22.65;;;5.10;99.90;;;;;;4993413;28;20030;-86
2022/03/23 06:35:00;;;;;;;46.47;24.60;;;5.20;99.90;;;;;;4985982;28;20415;-87
2022/03/23 06:37:26;;;;;;;43.97;23.33;;;5.30;99.90;;;;;;4976701;28;20125;-86
2022/03/23 06:39:52;;;;;;;50.92;25.10;;;5.50;99.90;;;;;;4986482;28;20023;-85
2022/03/23 06:42:17;;;;;;;49.22;24.75;;;5.60;99.90;;;;;;4994019;28;20097;-87
2022/03/23 06:44:43;;;;;;;47.30;25.08;;;5.70;99.90;;;;;;4996089;28;20033;-87
2022/03/23 06:47:09;;;;;;;44.17;22.75;;;5.80;99.90;;;;;;4993018;28;20502;-87
2022/03/23 06:49:34;;;;;;;49.53;23.63;;;5.90;99.90;;;;;;4999247;28;20498;-86
2022/03/23 06:52:00;;;;;;;48.28;23.77;;;6.10;99.90;;;;;;4995454;28;20543;-86
2022/03/23 06:54:25;;;;;;;43.17;24.33;;;6.20;99.90;;;;;;4995010;28;20112;-86
2022/03/23 06:56:51;;;;;;;49.95;24.88;;;6.20;99.90;;;;;;4986944;28;20030;-87
2022/03/23 06:59:18;;;;;;;51.58;24.98;;;6.40;99.90;;;;;;4991911;28;20018;-86
2022/03/23 07:01:44;;;;;;;46.33;25.05;;;6.40;99.90;;;;;;4976911;28;20039;-86
2022/03/23 07:04:10;;;;;;;47.53;23.75;;;6.50;99.90;;;;;;4994170;28;20498;-85
2022/03/23 07:06:35;;;;;;;44.83;24.58;;;6.60;99.90;;;;;;4993402;28;20030;-86
2022/03/23 07:11:45;;;;;;;54.03;25.63;;;6.80;99.90;;;;;;4984989;28;20100;-85
2022/03/23 07:14:11;;;;;;;47.20;24.98;;;6.90;99.90;;;;;;4993519;28;20026;-86
2022/03/23 07:16:36;;;;;;;44.17;24.95;;;7.00;99.90;;;;;;4988319;28;20034;-87
2022/03/23 07:19:02;;;;;;;46.83;24.90;;;7.10;99.90;;;;;;4990603;28;20097;-86
2022/03/23 07:21:27;;;;;;;47.38;25.17;;;7.20;99.90;;;;;;4993103;28;20089;-86
2022/03/23 07:23:54;;;;;;;51.95;25.60;;;7.40;99.90;;;;;;4978173;28;20247;-87
2022/03/23 07:26:21;;;;;;;45.08;24.35;;;7.40;99.90;;;;;;4995772;28;20030;-86
2022/03/23 07:28:47;;;;;;;51.63;24.33;;;7.50;99.90;;;;;;4989157;28;20058;-86
2022/03/23 07:31:13;;;;;;;46.47;24.48;;;7.70;99.90;;;;;;4985187;28;20038;-86
2022/03/23 07:33:38;;;;;;;42.35;23.58;;;7.80;99.90;;;;;;4993683;28;20031;-86
2022/03/23 07:36:04;;;;;;;44.33;24.20;;;7.90;99.90;;;;;;4995647;28;20069;-86
2022/03/23 07:38:29;;;;;;;43.33;22.98;;;8.10;99.90;;;;;;4993266;28;20027;-86
2022/03/23 07:40:55;;;;;;;42.05;23.85;;;8.20;99.90;;;;;;4988353;28;20039;-86
2022/03/23 07:43:20;;;;;;;45.42;24.48;;;8.30;99.90;;;;;;4982991;28;20041;-86
2022/03/23 07:45:47;;;;;;;48.70;24.30;;;8.40;99.90;;;;;;4994092;28;20372;-87
2022/03/23 07:48:12;;;;;;;46.85;25.80;;;8.50;99.80;;;;;;4994993;28;20035;-87
2022/03/23 07:50:38;;;;;;;47.53;24.23;;;8.60;99.70;;;;;;4995160;28;20026;-87
2022/03/23 07:53:03;;;;;;;47.10;24.92;;;8.70;99.40;;;;;;4989695;28;20022;-90
2022/03/23 07:55:29;;;;;;;50.08;24.85;;;8.80;99.10;;;;;;4988021;28;20039;-88
2022/03/23 07:57:54;;;;;;;49.30;27.23;;;9.00;98.90;;;;;;4990013;28;20555;-90
2022/03/23 08:00:21;;;;;;;43.88;24.33;;;9.10;98.50;;;;;;4981069;28;20065;-86
2022/03/23 08:02:47;;;;;;;45.78;24.48;;;9.20;98.40;;;;;;4984096;28;20034;-87
2022/03/23 08:05:13;;;;;;;43.55;23.88;;;9.30;98.20;;;;;;4983679;28;20542;-87
2022/03/23 08:07:38;;;;;;;42.58;24.00;;;9.40;98.00;;;;;;4975687;28;20125;-86
2022/03/23 08:10:04;;;;;;;42.08;24.88;;;9.50;97.60;;;;;;4988154;28;20030;-87
2022/03/23 08:12:30;;;;;;;50.30;25.67;;;9.60;97.50;;;;;;4976014;28;20038;-86
2022/03/23 08:14:55;;;;;;;45.85;24.23;;;9.70;97.20;;;;;;4978300;28;20035;-86
2022/03/23 08:17:21;;;;;;;48.33;25.88;;;9.90;96.90;;;;;;4980388;28;20466;-87
2022/03/23 08:20:32;;;;;;;46.60;24.50;;;10.00;96.60;;;;;;4986339;28;20047;-86
2022/03/23 08:22:32;;;;;;;43.08;23.58;;;10.10;96.30;;;;;;4976191;28;20055;-86
2022/03/23 08:24:57;;;;;;;38.83;23.80;;;10.30;95.90;;;;;;4988358;28;20029;-87
2022/03/23 08:27:23;;;;;;;46.60;24.70;;;10.60;95.20;;;;;;4990993;28;20039;-87
2022/03/23 08:29:48;;;;;;;44.95;24.40;;;10.70;94.80;;;;;;4983683;28;20371;-85
2022/03/23 08:32:14;;;;;;;44.28;23.73;;;10.90;94.20;;;;;;4980381;28;20027;-86
2022/03/23 08:34:39;;;;;;;40.17;22.83;;;11.00;93.70;;;;;;4992795;28;20054;-86
2022/03/23 08:37:05;;;;;;;51.22;23.48;;;11.20;93.40;;;;;;4978666;28;20026;-86
2022/03/23 08:39:31;;;;;;;43.05;22.88;;;11.20;92.80;;;;;;4974632;28;20030;-86
2022/03/23 08:41:56;;;;;;;42.65;25.45;;;11.40;92.90;;;;;;4989253;28;20049;-85
2022/03/23 08:44:22;;;;;;;37.50;22.40;;;11.50;92.70;;;;;;4984805;28;20046;-86
2022/03/23 08:46:47;;;;;;;41.33;25.13;;;11.60;92.60;;;;;;4993323;28;20051;-86
2022/03/23 08:49:13;;;;;;;43.47;24.27;;;11.70;92.30;;;;;;4974921;28;20019;-86
2022/03/23 08:51:38;;;;;;;46.72;26.05;;;11.80;92.20;;;;;;4988726;28;20030;-86
2022/03/23 08:54:04;;;;;;;41.67;23.02;;;11.90;91.90;;;;;;4974984;28;20026;-86
2022/03/23 08:56:30;;;;;;;37.78;23.27;;;12.00;91.70;;;;;;4977490;28;20092;-86
2022/03/23 08:58:55;;;;;;;36.35;22.70;;;12.20;91.20;;;;;;4991557;28;20133;-86
2022/03/23 09:01:21;;;;;;;34.45;21.02;;;12.20;90.60;;;;;;4990866;28;20418;-87
2022/03/23 09:03:46;;;;;;;33.45;20.73;;;12.40;90.00;;;;;;4990259;28;20105;-86
2022/03/23 09:06:12;;;;;;;33.47;21.27;;;12.40;88.70;;;;;;4978163;28;20471;-86
2022/03/23 09:08:38;;;;;;;36.00;21.20;;;12.50;87.00;;;;;;4982847;28;20403;-85
2022/03/23 09:11:04;;;;;;;42.50;21.65;;;12.60;86.00;;;;;;4990570;28;20023;-86
2022/03/23 09:13:30;;;;;;;33.88;20.20;;;12.70;84.60;;;;;;4990894;28;20045;-86
2022/03/23 09:15:56;;;;;;;35.28;21.27;;;12.70;83.60;;;;;;4993924;28;20073;-86
2022/03/23 09:18:21;;;;;;;36.38;21.50;;;12.80;83.00;;;;;;4990057;28;20050;-86
2022/03/23 09:20:47;;;;;;;39.45;22.40;;;12.90;82.60;;;;;;4984670;28;20049;-86
2022/03/23 09:23:12;;;;;;;32.95;20.75;;;12.90;81.70;;;;;;4988002;28;20048;-85
2022/03/23 09:25:40;;;;;;;38.83;22.38;;;13.00;81.50;;;;;;4977551;28;20033;-85
2022/03/23 09:28:05;;;;;;;37.85;22.02;;;13.10;80.70;;;;;;4979234;28;20086;-86
2022/03/23 09:30:31;;;;;;;39.00;22.45;;;13.20;80.40;;;;;;4977077;28;20034;-86
2022/03/23 09:32:57;;;;;;;38.40;21.08;;;13.30;80.10;;;;;;4985340;28;20077;-86
2022/03/23 09:35:23;;;;;;;38.13;23.00;;;13.30;80.20;;;;;;4990710;28;20034;-86
2022/03/23 09:37:49;;;;;;;43.80;24.13;;;13.40;79.60;;;;;;4989272;28;20383;-86
2022/03/23 09:40:19;;;;;;;39.38;23.63;;;13.50;79.10;;;;;;4991099;28;20024;-86
2022/03/23 09:42:45;;;;;;;36.78;22.92;;;13.60;79.20;;;;;;4992766;28;20116;-86
2022/03/23 09:45:17;;;;;;;34.58;22.42;;;13.70;78.70;;;;;;4990180;28;20030;-86
2022/03/23 09:47:43;;;;;;;36.42;23.23;;;13.80;78.30;;;;;;4992117;28;20045;-85
2022/03/23 09:50:09;;;;;;;40.78;23.33;;;13.90;77.70;;;;;;4992487;28;20034;-86
2022/03/23 09:52:35;;;;;;;36.28;22.63;;;13.90;77.70;;;;;;4993326;28;20023;-85
2022/03/23 09:55:01;;;;;;;39.60;24.25;;;14.00;77.70;;;;;;4992181;28;20061;-85
2022/03/23 09:57:26;;;;;;;38.60;23.83;;;14.10;77.60;;;;;;4992844;28;20014;-84
2022/03/23 09:59:52;;;;;;;40.28;23.70;;;14.20;77.70;;;;;;4990102;28;20038;-84
2022/03/23 10:02:50;;;;;;;38.40;24.13;;;14.30;77.80;;;;;;4986837;28;20038;-86
2022/03/23 10:05:22;;;;;;;43.90;24.27;;;14.50;77.30;;;;;;4988169;28;20031;-86
2022/03/23 10:08:25;;;;;;;40.38;24.63;;;14.60;76.90;;;;;;4988206;28;20062;-84
2022/03/23 10:11:21;;;;;;;37.08;23.30;;;14.60;76.70;;;;;;4998703;28;20373;-84
2022/03/23 10:14:24;;;;;;;41.42;24.77;;;14.70;76.70;;;;;;4978107;28;20031;-85
2022/03/23 10:17:11;;;;;;;38.55;25.05;;;14.80;76.00;;;;;;4991583;28;20538;-85
2022/03/23 10:19:43;;;;;;;38.25;25.08;;;14.90;75.90;;;;;;4992622;28;20039;-85
2022/03/23 10:22:14;;;;;;;40.45;25.00;;;14.90;75.60;;;;;;4993338;28;20498;-85
2022/03/23 10:24:40;;;;;;;39.45;25.90;;;14.90;74.70;;;;;;4990759;28;20058;-84
2022/03/23 10:27:08;;;;;;;41.10;26.10;;;15.00;74.60;;;;;;4999461;28;20113;-85
2022/03/23 10:29:43;;;;;;;40.20;26.35;;;15.00;74.20;;;;;;4990849;28;20036;-85
2022/03/23 10:32:13;;;;;;;40.65;25.17;;;15.10;73.20;;;;;;4982079;28;20030;-86
2022/03/23 10:34:41;;;;;;;43.90;25.55;;;15.10;73.10;;;;;;4988526;28;20050;-86
2022/03/23 10:37:07;;;;;;;42.60;25.92;;;15.20;72.50;;;;;;4993887;28;20027;-86
2022/03/23 10:39:33;;;;;;;41.35;24.85;;;15.20;71.90;;;;;;4982207;28;20069;-86
2022/03/23 10:42:05;;;;;;;37.95;25.30;;;15.20;71.90;;;;;;4976346;28;20046;-86
2022/03/23 10:44:31;;;;;;;40.90;25.02;;;15.30;72.30;;;;;;4991126;28;20030;-86
2022/03/23 10:46:58;;;;;;;39.97;24.65;;;15.40;72.70;;;;;;4987255;28;20134;-86
2022/03/23 10:49:35;;;;;;;36.65;23.60;;;15.50;72.90;;;;;;4984599;28;20023;-86
2022/03/23 10:52:15;;;;;;;39.25;24.58;;;15.70;72.70;;;;;;4980539;28;20038;-86
2022/03/23 10:55:02;;;;;;;35.88;23.65;;;15.90;71.90;;;;;;4988725;28;20109;-85
2022/03/23 10:57:58;;;;;;;36.67;23.88;;;16.00;71.00;;;;;;4997923;28;20061;-85
2022/03/23 11:00:42;;;;;;;42.58;24.17;;;16.10;70.40;;;;;;4983165;28;20030;-86
2022/03/23 11:03:09;;;;;;;39.40;24.67;;;16.30;70.20;;;;;;4994291;28;20030;-86
2022/03/23 11:05:48;;;;;;;44.97;26.27;;;16.40;70.20;;;;;;4992361;28;20035;-86
2022/03/23 11:08:22;;;;;;;42.22;24.23;;;16.60;69.00;;;;;;4988673;28;20027;-85
2022/03/23 11:16:28;;;;;;;38.90;23.65;;;16.90;67.30;;;;;;4989924;28;20091;-86
2022/03/23 11:19:08;;;;;;;40.35;25.17;;;17.00;66.30;;;;;;4988136;28;20042;-85
2022/03/23 11:21:57;;;;;;;36.85;23.17;;;17.10;65.80;;;;;;4990502;28;20557;-84
2022/03/23 11:24:24;;;;;;;37.92;23.60;;;17.30;64.90;;;;;;5011947;28;20037;-85
2022/03/23 11:26:51;;;;;;;36.67;24.48;;;17.30;63.70;;;;;;4998711;28;20026;-86
2022/03/23 11:29:19;;;;;;;40.28;23.73;;;17.30;63.40;;;;;;4994082;28;20048;-84
2022/03/23 11:31:49;;;;;;;38.92;24.30;;;17.40;62.80;;;;;;4976667;28;20114;-85
2022/03/23 11:34:18;;;;;;;37.75;23.95;;;17.50;62.70;;;;;;4991766;28;20066;-85
2022/03/23 11:36:47;;;;;;;38.97;24.35;;;17.50;62.20;;;;;;4985066;28;20034;-86
2022/03/23 11:39:13;;;;;;;40.90;23.80;;;17.60;62.10;;;;;;4979076;28;20035;-86
2022/03/23 11:41:38;;;;;;;37.97;24.63;;;17.70;62.10;;;;;;4990705;28;20078;-84
2022/03/23 11:44:04;;;;;;;42.13;25.67;;;17.80;61.90;;;;;;4990689;28;20033;-85
2022/03/23 11:46:31;;;;;;;37.15;25.00;;;17.90;61.80;;;;;;4995311;28;20034;-84
2022/03/23 11:48:56;;;;;;;44.28;26.55;;;17.90;61.60;;;;;;4995589;28;20065;-86
2022/03/23 11:51:40;;;;;;;38.95;25.13;;;18.00;61.00;;;;;;4991421;28;20018;-86
2022/03/23 11:54:09;;;;;;;36.72;25.02;;;18.10;61.00;;;;;;4998333;28;20030;-87
2022/03/23 11:56:55;;;;;;;38.28;25.85;;;18.20;60.20;;;;;;5022103;28;20119;-86
2022/03/23 11:59:24;;;;;;;41.72;26.10;;;18.10;58.40;;;;;;4991533;28;20037;-85
2022/03/23 12:01:51;;;;;;;45.05;27.00;;;18.00;58.40;;;;;;4987275;28;20045;-86
2022/03/23 12:04:22;;;;;;;42.33;25.88;;;18.00;59.00;;;;;;4984678;28;20479;-85
2022/03/23 12:07:03;;;;;;;39.45;26.08;;;18.00;57.70;;;;;;4991880;28;20026;-88
2022/03/23 12:09:42;;;;;;;39.17;24.73;;;18.00;57.80;;;;;;5004284;28;20554;-88
2022/03/23 12:12:33;;;;;;;41.20;26.02;;;18.00;57.40;;;;;;4977942;28;20085;-86
2022/03/23 12:15:17;;;;;;;39.13;25.05;;;18.10;57.80;;;;;;4977686;28;20554;-88
2022/03/23 12:18:02;;;;;;;38.85;25.45;;;18.30;57.10;;;;;;4995311;28;20032;-88
2022/03/23 12:20:41;;;;;;;40.83;25.92;;;18.40;57.50;;;;;;4995462;28;20178;-87
2022/03/23 12:23:18;;;;;;;39.88;25.95;;;18.50;57.30;;;;;;4983170;28;20038;-86
2022/03/23 12:26:03;;;;;;;41.50;24.30;;;18.60;56.30;;;;;;4996041;28;20113;-86
2022/03/23 12:28:43;;;;;;;39.03;26.20;;;18.60;56.90;;;;;;4984818;28;20030;-86
2022/03/23 12:31:16;;;;;;;37.97;26.05;;;18.70;56.10;;;;;;4988964;28;20426;-86
2022/03/23 12:34:08;;;;;;;34.85;24.00;;;18.70;56.30;;;;;;4987892;28;20073;-88
2022/03/23 12:36:56;;;;;;;38.33;24.25;;;18.80;56.90;;;;;;4990877;28;20491;-88
2022/03/23 12:39:27;;;;;;;42.53;25.08;;;18.90;55.90;;;;;;4983957;28;20118;-87
2022/03/23 12:41:53;;;;;;;36.42;25.42;;;19.00;55.60;;;;;;4975662;28;20035;-88
2022/03/23 12:44:31;;;;;;;38.17;24.42;;;19.00;54.40;;;;;;4970551;28;20501;-88
2022/03/23 12:47:27;;;;;;;38.58;25.85;;;19.00;54.20;;;;;;4986396;28;20545;-88
2022/03/23 12:58:24;;;;;;;37.22;25.00;;;19.10;53.80;;;;;;4981726;28;20041;-88
2022/03/23 13:00:52;;;;;;;36.90;24.33;;;19.20;53.60;;;;;;4993377;28;20088;-88
2022/03/23 13:03:22;;;;;;;36.97;25.50;;;19.40;53.70;;;;;;4994468;28;20030;-88
2022/03/23 13:05:59;;;;;;;37.30;25.33;;;19.50;53.10;;;;;;4993813;28;20018;-86